createdAt,value
2023-05-19T00:01:20.891Z,99.90
2023-05-19T00:04:02.972Z,99.90
2023-05-19T00:06:32.070Z,99.90
2023-05-19T00:09:01.543Z,99.90
2023-05-19T00:11:29.158Z,99.90
2023-05-19T00:14:00.493Z,99.90
2023-05-19T00:16:29.306Z,99.90
2023-05-19T00:19:01.429Z,99.90
2023-05-19T00:21:29.421Z,99.90
2023-05-19T00:23:56.403Z,99.90
2023-05-19T00:26:23.838Z,99.90
2023-05-19T00:28:51.156Z,99.90
2023-05-19T00:31:18.082Z,99.90
2023-05-19T00:33:45.403Z,99.90
2023-05-19T00:36:12.874Z,99.90
2023-05-19T00:38:39.940Z,99.90
2023-05-19T00:41:07.435Z,99.90
2023-05-19T00:43:34.703Z,99.90
2023-05-19T00:46:01.775Z,99.90
2023-05-19T00:48:29.043Z,99.90
2023-05-19T00:51:02.105Z,99.90
2023-05-19T00:53:30.341Z,99.90
2023-05-19T00:55:58.960Z,99.90
2023-05-19T00:58:29.334Z,99.90
2023-05-19T01:01:04.170Z,99.90
2023-05-19T01:03:32.857Z,99.90
2023-05-19T01:06:04.873Z,99.90
2023-05-19T01:08:38.818Z,99.90
2023-05-19T01:11:06.926Z,99.90
2023-05-19T01:13:35.813Z,99.90
2023-05-19T01:16:12.485Z,99.90
2023-05-19T01:19:01.767Z,99.90
2023-05-19T01:21:47.900Z,99.90
2023-05-19T01:24:45.512Z,99.90
2023-05-19T01:27:30.476Z,99.90
2023-05-19T01:30:22.332Z,99.90
2023-05-19T01:32:53.324Z,99.90
2023-05-19T01:35:24.806Z,99.90
2023-05-19T01:37:54.373Z,99.90
2023-05-19T01:40:22.749Z,99.90
2023-05-19T01:42:53.980Z,99.90
2023-05-19T01:45:22.613Z,99.90
2023-05-19T01:47:57.938Z,99.90
2023-05-19T01:50:25.148Z,99.90
2023-05-19T01:52:52.389Z,99.90
2023-05-19T01:55:19.797Z,99.90
2023-05-19T01:58:03.728Z,99.90
2023-05-19T02:00:54.274Z,99.90
2023-05-19T02:03:42.288Z,99.90
2023-05-19T02:06:11.996Z,99.90
2023-05-19T02:08:54.098Z,99.90
2023-05-19T02:11:47.827Z,99.90
2023-05-19T02:14:34.082Z,99.90
2023-05-19T02:17:02.204Z,99.90
2023-05-19T02:19:35.627Z,99.90
2023-05-19T02:22:02.526Z,99.90
2023-05-19T02:24:29.429Z,99.90
2023-05-19T02:26:56.301Z,99.90
2023-05-19T02:29:23.211Z,99.90
2023-05-19T02:31:50.202Z,99.90
2023-05-19T02:34:17.161Z,99.90
2023-05-19T02:36:44.167Z,99.90
2023-05-19T02:39:11.828Z,99.90
2023-05-19T02:41:39.208Z,99.90
2023-05-19T02:44:06.256Z,99.90
2023-05-19T02:46:33.552Z,99.90
2023-05-19T02:49:00.396Z,99.90
2023-05-19T02:51:27.306Z,99.90
2023-05-19T02:53:54.152Z,99.90
2023-05-19T02:56:21.736Z,99.90
2023-05-19T02:58:48.682Z,99.90
2023-05-19T03:01:16.554Z,99.90
2023-05-19T03:03:43.583Z,99.90
2023-05-19T03:06:10.512Z,99.90
2023-05-19T03:08:38.775Z,99.90
2023-05-19T03:11:06.920Z,99.90
2023-05-19T03:13:34.636Z,99.90
2023-05-19T03:16:02.041Z,99.90
2023-05-19T03:18:29.088Z,99.90
2023-05-19T03:20:56.389Z,99.90
2023-05-19T03:23:23.299Z,99.90
2023-05-19T03:25:50.853Z,99.90
2023-05-19T03:28:17.656Z,99.90
2023-05-19T03:30:44.571Z,99.90
2023-05-19T03:33:11.921Z,99.90
2023-05-19T03:35:38.861Z,99.90
2023-05-19T03:38:05.732Z,99.90
2023-05-19T03:40:32.776Z,99.90
2023-05-19T03:43:01.129Z,99.90
2023-05-19T03:45:28.425Z,99.90
2023-05-19T03:47:55.551Z,99.90
2023-05-19T03:50:22.884Z,99.90
2023-05-19T03:52:49.764Z,99.90
2023-05-19T03:55:16.777Z,99.90
2023-05-19T03:57:44.339Z,99.90
2023-05-19T04:00:12.345Z,99.90
2023-05-19T04:02:39.817Z,99.90
2023-05-19T04:05:07.756Z,99.90
2023-05-19T04:07:34.639Z,99.90
2023-05-19T04:10:02.410Z,99.90
2023-05-19T04:12:29.238Z,99.90
2023-05-19T04:14:56.203Z,99.90
2023-05-19T04:17:26.312Z,99.90
2023-05-19T04:19:54.113Z,99.90
2023-05-19T04:22:21.094Z,99.90
2023-05-19T04:24:48.861Z,99.90
2023-05-19T04:27:16.202Z,99.90
2023-05-19T04:29:43.098Z,99.90
2023-05-19T04:32:10.824Z,99.90
2023-05-19T04:34:40.473Z,99.90
2023-05-19T04:37:07.953Z,99.90
2023-05-19T04:39:35.032Z,99.90
2023-05-19T04:42:02.664Z,99.90
2023-05-19T04:44:30.144Z,99.90
2023-05-19T04:46:58.361Z,99.90
2023-05-19T04:49:25.354Z,99.90
2023-05-19T04:51:55.571Z,99.90
2023-05-19T04:54:22.982Z,99.90
2023-05-19T04:56:49.903Z,99.90
2023-05-19T04:59:16.755Z,99.90
2023-05-19T05:01:43.711Z,99.90
2023-05-19T05:04:10.801Z,99.90
2023-05-19T05:06:38.469Z,99.90
2023-05-19T05:09:05.380Z,99.90
2023-05-19T05:11:32.516Z,99.90
2023-05-19T05:13:59.671Z,99.90
2023-05-19T05:16:27.348Z,99.90
2023-05-19T05:18:54.484Z,99.90
2023-05-19T05:21:21.711Z,99.90
2023-05-19T05:23:49.119Z,99.90
2023-05-19T05:26:21.462Z,99.90
2023-05-19T05:28:48.591Z,99.90
2023-05-19T05:31:16.246Z,99.90
2023-05-19T05:33:43.669Z,99.90
2023-05-19T05:36:10.674Z,99.90
2023-05-19T05:38:37.502Z,99.90
2023-05-19T05:41:04.538Z,99.90
2023-05-19T05:43:31.460Z,99.90
2023-05-19T05:45:58.503Z,99.90
2023-05-19T05:48:25.917Z,99.90
2023-05-19T05:50:57.790Z,99.90
2023-05-19T05:53:26.717Z,99.90
2023-05-19T05:55:53.961Z,99.90
2023-05-19T05:58:21.273Z,99.90
2023-05-19T06:00:51.521Z,99.90
2023-05-19T06:03:18.599Z,99.90
2023-05-19T06:05:45.653Z,99.90
2023-05-19T06:08:13.156Z,99.90
2023-05-19T06:10:41.745Z,99.90
2023-05-19T06:13:08.644Z,99.90
2023-05-19T06:15:36.674Z,99.90
2023-05-19T06:18:03.758Z,99.90
2023-05-19T06:20:30.973Z,99.90
2023-05-19T06:22:58.532Z,99.90
2023-05-19T06:25:25.867Z,99.90
2023-05-19T06:27:52.860Z,99.90
2023-05-19T06:30:19.722Z,99.90
2023-05-19T06:32:46.980Z,99.90
2023-05-19T06:35:13.938Z,99.90
2023-05-19T06:37:40.765Z,99.90
2023-05-19T06:40:08.457Z,99.90
2023-05-19T06:42:35.398Z,99.90
2023-05-19T06:45:02.608Z,99.90
2023-05-19T06:47:29.567Z,99.90
2023-05-19T06:49:57.049Z,99.90
2023-05-19T06:52:24.702Z,99.80
2023-05-19T06:54:51.585Z,97.50
2023-05-19T06:57:18.507Z,95.30
2023-05-19T06:59:46.687Z,92.10
2023-05-19T07:02:14.231Z,90.20
2023-05-19T07:04:42.545Z,88.50
2023-05-19T07:07:09.546Z,84.50
2023-05-19T07:09:36.553Z,81.60
2023-05-19T07:12:03.597Z,77.10
2023-05-19T07:14:30.607Z,75.80
2023-05-19T07:16:57.568Z,73.10
2023-05-19T07:19:24.488Z,71.60
2023-05-19T07:21:51.519Z,69.30
2023-05-19T07:24:18.413Z,67.00
2023-05-19T07:26:45.419Z,65.30
2023-05-19T07:29:12.252Z,63.90
2023-05-19T07:31:39.154Z,62.10
2023-05-19T07:34:06.084Z,60.20
2023-05-19T07:36:34.203Z,58.90
2023-05-19T07:39:03.526Z,57.70
2023-05-19T07:41:30.505Z,55.90
2023-05-19T07:43:57.379Z,54.60
2023-05-19T07:46:24.261Z,53.40
2023-05-19T07:48:51.145Z,53.40
2023-05-19T07:51:19.374Z,52.90
2023-05-19T07:53:47.162Z,52.80
2023-05-19T07:56:14.095Z,51.60
2023-05-19T07:58:40.933Z,50.80
2023-05-19T08:01:07.869Z,50.30
2023-05-19T08:03:34.943Z,50.50
2023-05-19T08:06:02.218Z,50.50
2023-05-19T08:08:29.045Z,50.40
2023-05-19T08:10:55.934Z,49.50
2023-05-19T08:13:22.800Z,48.90
2023-05-19T08:15:49.684Z,48.90
2023-05-19T08:18:16.590Z,48.40
2023-05-19T08:20:43.833Z,46.70
2023-05-19T08:23:10.687Z,46.30
2023-05-19T08:25:37.644Z,46.90
2023-05-19T08:28:04.585Z,46.00
2023-05-19T08:30:32.034Z,46.00
2023-05-19T08:32:59.057Z,46.10
2023-05-19T08:35:25.984Z,46.90
2023-05-19T08:37:52.821Z,46.20
2023-05-19T08:40:21.002Z,46.40
2023-05-19T08:42:47.964Z,46.30
2023-05-19T08:45:15.100Z,45.70
2023-05-19T08:47:43.020Z,45.60
2023-05-19T08:50:11.409Z,46.10
2023-05-19T08:52:53.041Z,46.50
2023-05-19T08:55:42.211Z,46.60
2023-05-19T08:58:09.822Z,46.40
2023-05-19T09:00:37.416Z,46.80
2023-05-19T09:03:17.533Z,46.30
2023-05-19T09:05:46.510Z,46.70
2023-05-19T09:08:13.791Z,46.60
2023-05-19T09:10:40.993Z,46.80
2023-05-19T09:13:07.927Z,46.80
2023-05-19T09:15:36.885Z,47.00
2023-05-19T09:18:12.114Z,46.60
2023-05-19T09:20:44.752Z,46.70
2023-05-19T09:23:16.923Z,46.70
2023-05-19T09:25:51.641Z,46.70
2023-05-19T09:28:28.154Z,46.90
2023-05-19T09:31:06.287Z,46.10
2023-05-19T09:33:34.895Z,46.80
2023-05-19T09:36:03.340Z,47.10
2023-05-19T09:38:30.332Z,48.70
2023-05-19T09:40:58.380Z,48.40
2023-05-19T09:43:29.272Z,49.10
2023-05-19T09:46:15.754Z,50.00
2023-05-19T09:48:42.704Z,51.90
2023-05-19T09:51:12.369Z,52.70
2023-05-19T09:53:39.815Z,52.70
2023-05-19T09:56:10.061Z,52.80
2023-05-19T09:58:37.641Z,54.10
2023-05-19T10:01:05.592Z,55.00
2023-05-19T10:03:34.201Z,54.90
2023-05-19T10:06:05.348Z,54.60
2023-05-19T10:08:34.258Z,54.80
2023-05-19T10:11:01.720Z,54.60
2023-05-19T10:13:30.755Z,54.50
2023-05-19T10:15:59.777Z,55.30
2023-05-19T10:18:30.367Z,55.10
2023-05-19T10:20:59.013Z,52.20
2023-05-19T10:23:26.312Z,51.40
2023-05-19T10:25:57.036Z,52.20
2023-05-19T10:28:28.025Z,52.60
2023-05-19T10:30:59.680Z,52.40
2023-05-19T10:33:45.631Z,52.20
2023-05-19T10:36:24.497Z,51.80
2023-05-19T10:39:00.657Z,51.10
2023-05-19T10:41:32.643Z,49.70
2023-05-19T10:44:21.272Z,48.20
2023-05-19T10:46:48.311Z,47.30
2023-05-19T10:49:25.059Z,46.70
2023-05-19T10:51:58.155Z,44.60
2023-05-19T10:54:47.880Z,43.90
2023-05-19T10:57:16.480Z,41.90
2023-05-19T10:59:47.021Z,42.40
2023-05-19T11:02:41.918Z,40.90
2023-05-19T11:05:18.072Z,41.30
2023-05-19T11:07:56.130Z,40.60
2023-05-19T11:10:24.102Z,41.10
2023-05-19T11:12:52.165Z,42.00
2023-05-19T11:15:24.137Z,42.90
2023-05-19T11:17:51.186Z,42.60
2023-05-19T11:20:22.941Z,42.00
2023-05-19T11:23:14.890Z,40.90
2023-05-19T11:25:41.888Z,40.30
2023-05-19T11:28:12.013Z,40.40
2023-05-19T11:30:43.966Z,40.20
2023-05-19T11:33:11.629Z,40.10
2023-05-19T11:35:39.341Z,40.90
2023-05-19T11:38:07.265Z,40.50
2023-05-19T11:40:34.148Z,40.70
2023-05-19T11:43:01.995Z,39.70
2023-05-19T11:45:31.181Z,40.20
2023-05-19T11:48:02.370Z,40.10
2023-05-19T11:50:31.476Z,39.40
2023-05-19T11:53:01.088Z,39.50
2023-05-19T11:55:28.598Z,39.70
2023-05-19T11:58:03.948Z,40.00
2023-05-19T12:00:40.222Z,40.50
2023-05-19T12:03:08.675Z,40.90
2023-05-19T12:05:47.777Z,41.20
2023-05-19T12:08:18.524Z,41.30
2023-05-19T12:10:50.577Z,41.30
2023-05-19T12:13:17.630Z,41.00
2023-05-19T12:15:44.654Z,41.00
2023-05-19T12:18:11.695Z,40.80
2023-05-19T12:20:39.272Z,40.20
2023-05-19T12:23:06.637Z,40.20
2023-05-19T12:25:34.037Z,39.60
2023-05-19T12:28:04.592Z,39.40
2023-05-19T12:30:33.082Z,39.90
2023-05-19T12:33:02.071Z,40.50
2023-05-19T12:35:33.232Z,40.90
2023-05-19T12:38:19.897Z,41.60
2023-05-19T12:40:46.822Z,42.10
2023-05-19T12:43:23.370Z,42.90
2023-05-19T12:45:50.644Z,43.80
2023-05-19T12:48:18.023Z,45.70
2023-05-19T12:50:45.173Z,45.70
2023-05-19T12:53:13.008Z,46.50
2023-05-19T12:55:44.890Z,47.10
2023-05-19T12:58:12.653Z,48.30
2023-05-19T13:00:45.719Z,48.50
2023-05-19T13:03:20.103Z,46.50
2023-05-19T13:05:49.183Z,44.70
2023-05-19T13:08:19.025Z,45.30
2023-05-19T13:10:47.785Z,46.20
2023-05-19T13:13:15.041Z,46.10
2023-05-19T13:15:43.825Z,47.20
2023-05-19T13:18:13.364Z,48.10
2023-05-19T13:20:42.692Z,47.20
2023-05-19T13:23:14.199Z,46.80
2023-05-19T13:25:42.130Z,45.70
2023-05-19T13:28:09.741Z,46.30
2023-05-19T13:30:38.982Z,45.50
2023-05-19T13:33:06.259Z,47.10
2023-05-19T13:35:39.330Z,48.00
2023-05-19T13:38:09.589Z,47.50
2023-05-19T13:40:36.923Z,47.40
2023-05-19T13:43:04.949Z,47.80
2023-05-19T13:45:32.113Z,48.20
2023-05-19T13:47:59.196Z,48.00
2023-05-19T13:50:26.495Z,48.50
2023-05-19T13:52:53.923Z,49.60
2023-05-19T13:55:21.101Z,50.20
2023-05-19T13:57:47.967Z,50.60
2023-05-19T14:00:15.378Z,50.80
2023-05-19T14:02:42.489Z,50.20
2023-05-19T14:05:09.695Z,48.70
2023-05-19T14:07:37.081Z,47.30
2023-05-19T14:10:06.426Z,47.90
2023-05-19T14:12:44.988Z,48.40
2023-05-19T14:15:19.945Z,49.90
2023-05-19T14:17:48.930Z,50.90
2023-05-19T14:20:15.911Z,49.90
2023-05-19T14:22:42.829Z,49.50
2023-05-19T14:25:09.910Z,49.10
2023-05-19T14:27:36.912Z,47.20
2023-05-19T14:30:04.037Z,45.80
2023-05-19T14:32:30.982Z,45.10
2023-05-19T14:34:57.876Z,45.30
2023-05-19T14:37:27.554Z,44.20
2023-05-19T14:39:54.854Z,44.70
2023-05-19T14:42:21.763Z,45.00
2023-05-19T14:44:48.673Z,44.50
2023-05-19T14:47:15.706Z,44.40
2023-05-19T14:49:42.613Z,44.70
2023-05-19T14:52:09.514Z,45.20
2023-05-19T14:54:36.540Z,46.00
2023-05-19T14:57:04.502Z,47.00
2023-05-19T14:59:31.416Z,48.10
2023-05-19T15:01:58.234Z,49.00
2023-05-19T15:04:25.149Z,48.70
2023-05-19T15:07:05.843Z,49.30
2023-05-19T15:09:36.449Z,48.50
2023-05-19T15:12:03.456Z,48.40
2023-05-19T15:14:31.162Z,49.50
2023-05-19T15:16:58.654Z,49.80
2023-05-19T15:19:26.176Z,49.70
2023-05-19T15:21:53.360Z,49.00
2023-05-19T15:24:20.336Z,48.90
2023-05-19T15:26:47.581Z,49.40
2023-05-19T15:29:14.501Z,49.40
2023-05-19T15:31:41.520Z,50.10
2023-05-19T15:34:08.800Z,50.50
2023-05-19T15:36:35.686Z,50.50
2023-05-19T15:39:03.752Z,50.90
2023-05-19T15:41:33.132Z,51.00
2023-05-19T15:44:00.642Z,51.50
2023-05-19T15:46:27.999Z,51.00
2023-05-19T15:48:55.252Z,51.10
2023-05-19T15:51:22.432Z,51.40
2023-05-19T15:53:49.458Z,51.70
2023-05-19T15:56:16.780Z,52.40
2023-05-19T15:58:43.681Z,53.20
2023-05-19T16:01:10.989Z,53.40
2023-05-19T16:03:38.022Z,53.90
2023-05-19T16:06:05.301Z,54.20
2023-05-19T16:08:32.283Z,54.20
2023-05-19T16:10:59.215Z,54.40
2023-05-19T16:13:26.315Z,54.60
2023-05-19T16:15:53.248Z,55.00
2023-05-19T16:18:20.702Z,55.20
2023-05-19T16:20:47.531Z,55.30
2023-05-19T16:23:14.483Z,55.30
2023-05-19T16:25:41.531Z,55.70
2023-05-19T16:28:08.780Z,56.50
2023-05-19T16:30:35.902Z,56.90
2023-05-19T16:33:03.071Z,57.20
2023-05-19T16:35:30.148Z,57.50
2023-05-19T16:37:57.063Z,58.50
2023-05-19T16:40:24.096Z,59.20
2023-05-19T16:42:53.323Z,58.90
2023-05-19T16:45:20.495Z,58.90
2023-05-19T16:47:47.486Z,59.00
2023-05-19T16:50:14.517Z,59.00
2023-05-19T16:52:41.402Z,58.80
2023-05-19T16:55:08.680Z,58.70
2023-05-19T16:57:35.653Z,59.10
2023-05-19T17:00:03.696Z,59.00
2023-05-19T17:02:30.830Z,58.90
2023-05-19T17:04:57.838Z,58.90
2023-05-19T17:07:24.952Z,59.00
2023-05-19T17:09:53.957Z,58.90
2023-05-19T17:12:23.538Z,58.90
2023-05-19T17:14:52.083Z,59.10
2023-05-19T17:17:19.211Z,59.30
2023-05-19T17:19:46.804Z,59.60
2023-05-19T17:22:13.660Z,59.80
2023-05-19T17:24:41.259Z,60.70
2023-05-19T17:27:08.357Z,61.90
2023-05-19T17:29:35.406Z,63.00
2023-05-19T17:32:04.397Z,63.60
2023-05-19T17:34:31.479Z,64.40
2023-05-19T17:36:58.391Z,65.10
2023-05-19T17:39:25.362Z,65.30
2023-05-19T17:41:52.205Z,66.10
2023-05-19T17:44:19.107Z,66.10
2023-05-19T17:46:46.127Z,66.70
2023-05-19T17:49:13.862Z,67.60
2023-05-19T17:51:41.164Z,68.40
2023-05-19T17:54:08.327Z,68.90
2023-05-19T17:56:40.621Z,69.50
2023-05-19T17:59:07.769Z,70.20
2023-05-19T18:01:34.816Z,71.10
2023-05-19T18:04:02.456Z,71.90
2023-05-19T18:06:31.384Z,72.60
2023-05-19T18:09:00.995Z,74.10
2023-05-19T18:11:28.090Z,74.90
2023-05-19T18:13:55.057Z,75.30
2023-05-19T18:16:22.107Z,76.40
2023-05-19T18:18:50.565Z,77.30
2023-05-19T18:21:18.144Z,77.80
2023-05-19T18:23:45.801Z,77.50
2023-05-19T18:26:13.252Z,77.90
2023-05-19T18:28:41.246Z,78.00
2023-05-19T18:31:09.363Z,78.40
2023-05-19T18:33:36.267Z,79.60
2023-05-19T18:36:03.199Z,79.80
2023-05-19T18:38:30.112Z,80.60
2023-05-19T18:40:57.061Z,81.10
2023-05-19T18:43:26.769Z,82.20
2023-05-19T18:45:53.642Z,82.50
2023-05-19T18:48:22.535Z,83.30
2023-05-19T18:50:49.667Z,84.10
2023-05-19T18:53:16.709Z,84.60
2023-05-19T18:55:43.607Z,85.50
2023-05-19T18:58:10.633Z,86.00
2023-05-19T19:00:37.760Z,87.10
2023-05-19T19:03:04.764Z,87.60
2023-05-19T19:05:31.747Z,88.20
2023-05-19T19:07:58.766Z,88.90
2023-05-19T19:10:25.651Z,89.50
2023-05-19T19:12:52.807Z,89.80
2023-05-19T19:15:19.712Z,90.10
2023-05-19T19:17:46.720Z,90.30
2023-05-19T19:20:13.890Z,90.80
2023-05-19T19:22:40.806Z,91.10
2023-05-19T19:25:08.148Z,91.60
2023-05-19T19:27:35.795Z,91.80
2023-05-19T19:30:02.938Z,92.00
2023-05-19T19:32:31.445Z,92.00
2023-05-19T19:34:58.521Z,92.20
2023-05-19T19:37:25.566Z,92.40
2023-05-19T19:39:52.676Z,92.70
2023-05-19T19:42:19.617Z,92.80
2023-05-19T19:44:46.618Z,92.90
2023-05-19T19:47:13.454Z,92.90
2023-05-19T19:49:42.336Z,92.90
2023-05-19T19:52:09.188Z,93.00
2023-05-19T19:54:36.286Z,93.20
2023-05-19T19:57:03.238Z,93.30
2023-05-19T19:59:30.620Z,93.80
2023-05-19T20:01:57.801Z,93.70
2023-05-19T20:04:24.831Z,93.90
2023-05-19T20:06:52.043Z,94.20
2023-05-19T20:09:18.887Z,94.60
2023-05-19T20:11:45.764Z,94.80
2023-05-19T20:14:12.712Z,95.10
2023-05-19T20:16:40.815Z,95.50
2023-05-19T20:19:09.277Z,95.90
2023-05-19T20:21:36.412Z,96.30
2023-05-19T20:24:03.481Z,96.60
2023-05-19T20:26:30.485Z,97.10
2023-05-19T20:28:57.437Z,97.40
2023-05-19T20:31:25.793Z,97.80
2023-05-19T20:33:52.817Z,98.30
2023-05-19T20:36:19.930Z,98.80
2023-05-19T20:38:47.952Z,99.20
2023-05-19T20:41:15.120Z,99.60
2023-05-19T20:43:42.157Z,99.90
2023-05-19T20:46:09.197Z,99.90
2023-05-19T20:48:36.376Z,99.90
2023-05-19T20:51:03.310Z,99.90
2023-05-19T20:53:30.534Z,99.90
2023-05-19T20:56:00.376Z,99.90
2023-05-19T20:58:30.182Z,99.90
2023-05-19T21:01:02.674Z,99.90
2023-05-19T21:03:30.577Z,99.90
2023-05-19T21:05:57.581Z,99.90
2023-05-19T21:08:25.274Z,99.90
2023-05-19T21:10:52.655Z,99.90
2023-05-19T21:13:22.138Z,99.90
2023-05-19T21:15:49.048Z,99.90
2023-05-19T21:18:18.775Z,99.90
2023-05-19T21:20:45.607Z,99.90
2023-05-19T21:23:13.671Z,99.90
2023-05-19T21:25:40.911Z,99.90
2023-05-19T21:28:07.754Z,99.90
2023-05-19T21:30:35.143Z,99.90
2023-05-19T21:33:02.221Z,99.90
2023-05-19T21:35:29.284Z,99.90
2023-05-19T21:37:56.563Z,99.90
2023-05-19T21:40:23.420Z,99.90
2023-05-19T21:42:50.318Z,99.90
2023-05-19T21:45:17.232Z,99.90
2023-05-19T21:47:44.493Z,99.90
2023-05-19T21:50:11.488Z,99.90
2023-05-19T21:52:38.639Z,99.90
2023-05-19T21:55:06.122Z,99.90
2023-05-19T21:57:33.024Z,99.90
2023-05-19T22:00:00.038Z,99.90
2023-05-19T22:02:27.306Z,99.90
2023-05-19T22:04:54.303Z,99.90
2023-05-19T22:07:26.718Z,99.90
2023-05-19T22:09:54.047Z,99.90
2023-05-19T22:12:20.993Z,99.90
2023-05-19T22:14:48.044Z,99.90
2023-05-19T22:17:15.009Z,99.90
2023-05-19T22:19:41.950Z,99.90
2023-05-19T22:22:14.306Z,99.90
2023-05-19T22:24:42.014Z,99.90
2023-05-19T22:27:09.153Z,99.90
2023-05-19T22:29:41.189Z,99.90
2023-05-19T22:32:12.256Z,99.90
2023-05-19T22:34:42.435Z,99.90
2023-05-19T22:37:09.468Z,99.90
2023-05-19T22:39:36.621Z,99.90
2023-05-19T22:42:03.670Z,99.90
2023-05-19T22:44:30.572Z,99.90
2023-05-19T22:46:57.431Z,99.90
2023-05-19T22:49:24.450Z,99.90
2023-05-19T22:54:45.538Z,99.90
2023-05-19T22:57:12.645Z,99.90
2023-05-19T22:59:40.998Z,99.90
2023-05-19T23:02:08.241Z,99.90
2023-05-19T23:04:35.460Z,99.90
2023-05-19T23:07:08.135Z,99.90
2023-05-19T23:09:35.007Z,99.90
2023-05-19T23:12:01.847Z,99.90
2023-05-19T23:14:28.961Z,99.90
2023-05-19T23:16:55.926Z,99.90
2023-05-19T23:19:23.265Z,99.90
2023-05-19T23:21:50.478Z,99.90
2023-05-19T23:24:17.410Z,99.90
2023-05-19T23:26:46.733Z,99.90
2023-05-19T23:29:14.805Z,99.90
2023-05-19T23:31:42.069Z,99.90
2023-05-19T23:34:09.100Z,99.90
2023-05-19T23:36:36.629Z,99.90
2023-05-19T23:39:03.663Z,99.90
2023-05-19T23:41:30.490Z,99.90
2023-05-19T23:43:57.463Z,99.90
2023-05-19T23:46:24.640Z,99.90
2023-05-19T23:48:51.595Z,99.90
2023-05-19T23:51:18.611Z,99.90
2023-05-19T23:53:45.589Z,99.90
2023-05-19T23:56:12.498Z,99.90
2023-05-19T23:58:39.458Z,99.90
